Time;durP1;ratioP1;P1;durP2;ratioP2;P2;SDS_P1;SDS_P2;PMS_P1;PMS_P2;Temp;Humidity;BMP_temperature;BMP_pressure;BME280_temperature;BME280_humidity;BME280_pressure;Samples;Min_cycle;Max_cycle;Signal;HPM_P1;HPM_P2
2020/12/04 00:00:30;;;;;;;14.38;9.98;;;3.10;99.90;;;;;;5024565;28;20588;-83
2020/12/04 00:02:56;;;;;;;13.88;12.48;;;3.10;99.90;;;;;;5024424;28;20214;-83
2020/12/04 00:05:22;;;;;;;19.00;13.18;;;3.20;99.90;;;;;;5024242;28;20214;-82
2020/12/04 00:07:49;;;;;;;16.33;12.85;;;3.20;99.90;;;;;;5024058;28;20242;-83
2020/12/04 00:10:15;;;;;;;14.60;11.75;;;3.20;99.90;;;;;;5030754;28;20211;-82
2020/12/04 00:12:42;;;;;;;15.30;10.48;;;3.10;99.90;;;;;;5034308;28;20218;-82
2020/12/04 00:15:08;;;;;;;15.98;11.50;;;3.10;99.90;;;;;;5032497;28;20235;-82
2020/12/04 00:17:35;;;;;;;17.08;13.60;;;3.20;99.90;;;;;;5029199;28;20229;-82
2020/12/04 00:20:01;;;;;;;13.40;11.23;;;3.40;99.90;;;;;;5023892;28;20227;-82
2020/12/04 00:22:27;;;;;;;16.25;12.07;;;3.10;99.90;;;;;;5023927;28;20562;-83
2020/12/04 00:24:55;;;;;;;15.48;12.32;;;3.10;99.90;;;;;;5024227;28;20233;-82
2020/12/04 00:27:21;;;;;;;13.95;10.68;;;3.30;99.90;;;;;;5024173;28;20224;-82
2020/12/04 00:29:47;;;;;;;19.40;14.73;;;3.10;99.90;;;;;;5024120;28;20217;-82
2020/12/04 00:32:13;;;;;;;15.48;11.25;;;3.10;99.90;;;;;;5023618;28;20217;-82
2020/12/04 00:34:40;;;;;;;15.93;13.85;;;3.10;99.90;;;;;;5024317;28;20227;-82
2020/12/04 00:37:06;;;;;;;16.20;11.50;;;3.20;99.90;;;;;;5023860;28;20293;-83
2020/12/04 00:39:32;;;;;;;17.35;13.13;;;3.10;99.90;;;;;;5024099;28;20217;-82
2020/12/04 00:42:00;;;;;;;15.45;12.02;;;3.10;99.90;;;;;;5023742;28;20219;-82
2020/12/04 00:44:26;;;;;;;15.07;11.75;;;3.10;99.90;;;;;;5024034;28;20674;-82
2020/12/04 00:46:52;;;;;;;17.10;13.27;;;3.10;99.90;;;;;;5024013;28;20708;-82
2020/12/04 00:49:19;;;;;;;12.68;11.38;;;3.10;99.90;;;;;;5023486;28;20226;-83
2020/12/04 00:51:46;;;;;;;14.38;11.63;;;3.10;99.90;;;;;;5023284;28;20204;-82
2020/12/04 00:54:12;;;;;;;15.50;12.40;;;3.00;99.90;;;;;;5024167;28;20218;-82
2020/12/04 00:56:38;;;;;;;17.77;12.18;;;3.00;99.90;;;;;;5023391;28;20232;-83
2020/12/04 00:59:05;;;;;;;19.63;12.60;;;2.90;99.90;;;;;;5023668;28;20567;-82
2020/12/04 01:01:32;;;;;;;18.27;12.73;;;2.90;99.90;;;;;;5023600;28;20218;-82
2020/12/04 01:03:59;;;;;;;17.98;12.95;;;2.90;99.90;;;;;;5023425;28;20212;-83
2020/12/04 01:06:25;;;;;;;16.13;13.13;;;2.80;99.90;;;;;;5023407;28;20234;-83
2020/12/04 01:08:51;;;;;;;20.77;12.70;;;2.80;99.90;;;;;;5023860;28;20207;-83
2020/12/04 01:11:19;;;;;;;17.48;12.65;;;3.20;99.90;;;;;;5023411;28;20212;-83
2020/12/04 01:13:46;;;;;;;15.55;12.30;;;2.90;99.90;;;;;;5022845;28;20218;-83
2020/12/04 01:16:13;;;;;;;17.30;13.02;;;2.90;99.90;;;;;;5022854;28;20231;-83
2020/12/04 01:18:40;;;;;;;14.80;12.10;;;3.50;99.90;;;;;;5023509;28;20211;-83
2020/12/04 01:21:07;;;;;;;16.15;12.77;;;2.90;99.90;;;;;;5023476;28;20220;-83
2020/12/04 01:23:33;;;;;;;16.25;13.95;;;2.90;99.90;;;;;;5023453;28;20708;-83
2020/12/04 01:25:59;;;;;;;17.02;11.70;;;2.90;99.90;;;;;;5023600;28;20596;-83
2020/12/04 01:28:26;;;;;;;17.83;11.45;;;2.90;99.90;;;;;;5023270;28;20214;-83
2020/12/04 01:30:52;;;;;;;19.55;12.40;;;2.90;99.90;;;;;;5039679;23;20218;-84
2020/12/04 01:33:19;;;;;;;18.70;13.73;;;2.90;99.90;;;;;;5011006;28;20238;-85
2020/12/04 01:35:46;;;;;;;14.27;11.55;;;2.90;99.90;;;;;;5013111;28;20227;-84
2020/12/04 01:38:12;;;;;;;14.18;10.27;;;2.90;99.90;;;;;;5013157;28;20699;-85
2020/12/04 01:40:38;;;;;;;17.15;13.07;;;2.90;99.90;;;;;;5013637;28;20792;-84
2020/12/04 01:43:05;;;;;;;14.40;11.48;;;2.90;99.90;;;;;;5013801;28;20274;-85
2020/12/04 01:45:35;;;;;;;15.77;11.27;;;2.90;99.90;;;;;;5012889;28;20238;-84
2020/12/04 01:48:01;;;;;;;13.77;11.40;;;2.80;99.90;;;;;;5012853;28;20334;-85
2020/12/04 01:50:31;;;;;;;15.52;13.45;;;2.90;99.90;;;;;;5012960;28;20533;-85
2020/12/04 01:52:58;;;;;;;17.00;12.85;;;2.90;99.90;;;;;;5012635;28;20227;-84
2020/12/04 01:55:25;;;;;;;16.23;11.05;;;2.90;99.90;;;;;;5012650;28;20728;-85
2020/12/04 01:57:52;;;;;;;21.58;14.20;;;3.00;99.90;;;;;;5012834;28;20212;-85
2020/12/04 02:00:19;;;;;;;16.15;12.77;;;3.00;99.90;;;;;;5012644;28;20216;-85
2020/12/04 02:06:27;;;;;;;19.25;14.35;;;3.00;99.90;;;;;;5012687;28;20262;-85
2020/12/04 02:09:32;;;;;;;18.30;12.48;;;3.00;99.90;;;;;;5012491;28;20212;-84
2020/12/04 02:12:06;;;;;;;15.70;12.63;;;2.90;99.90;;;;;;5012128;28;20588;-84
2020/12/04 02:14:33;;;;;;;21.45;13.95;;;2.90;99.90;;;;;;5012351;28;20266;-85
2020/12/04 02:17:10;;;;;;;17.63;13.98;;;2.90;99.90;;;;;;5012371;28;20212;-84
2020/12/04 02:19:43;;;;;;;18.73;13.00;;;2.90;99.90;;;;;;5011772;28;20591;-85
2020/12/04 02:22:33;;;;;;;17.25;13.30;;;2.90;99.90;;;;;;5010786;28;20239;-85
2020/12/04 02:25:01;;;;;;;17.77;12.18;;;2.90;99.90;;;;;;5015361;28;20215;-85
2020/12/04 02:27:27;;;;;;;17.25;12.80;;;2.90;99.90;;;;;;5016836;28;20202;-85
2020/12/04 02:29:53;;;;;;;17.73;13.07;;;2.90;99.90;;;;;;5016335;28;20235;-85
2020/12/04 02:32:20;;;;;;;15.93;12.15;;;2.90;99.90;;;;;;5015966;28;20239;-85
2020/12/04 02:34:46;;;;;;;20.20;12.88;;;2.90;99.90;;;;;;5016281;28;20211;-85
2020/12/04 02:37:19;;;;;;;15.70;13.95;;;2.90;99.90;;;;;;5016218;28;20584;-85
2020/12/04 02:39:45;;;;;;;15.32;12.00;;;2.90;99.90;;;;;;5015983;28;20291;-85
2020/12/04 02:42:11;;;;;;;17.63;15.52;;;3.10;99.90;;;;;;5016079;28;20658;-84
2020/12/04 02:44:38;;;;;;;18.13;14.07;;;2.90;99.90;;;;;;5015907;28;20673;-85
2020/12/04 02:47:04;;;;;;;21.23;14.93;;;3.70;99.90;;;;;;5016036;28;20565;-84
2020/12/04 02:49:30;;;;;;;16.83;13.23;;;2.90;99.90;;;;;;5015955;28;20212;-84
2020/12/04 02:51:57;;;;;;;19.63;14.00;;;2.90;99.90;;;;;;5015294;28;20236;-85
2020/12/04 02:54:24;;;;;;;19.50;14.55;;;2.90;99.90;;;;;;5016039;28;20207;-85
2020/12/04 02:56:50;;;;;;;21.55;13.50;;;2.90;99.90;;;;;;5015483;28;20236;-85
2020/12/04 02:59:17;;;;;;;21.23;14.35;;;3.00;99.90;;;;;;5016011;28;20214;-85
2020/12/04 03:01:43;;;;;;;17.30;13.15;;;3.00;99.90;;;;;;5015553;28;20231;-85
2020/12/04 03:04:09;;;;;;;20.70;13.63;;;3.00;99.90;;;;;;5015993;28;20215;-85
2020/12/04 03:06:35;;;;;;;18.77;13.80;;;3.00;99.90;;;;;;5015788;28;20215;-84
2020/12/04 03:09:02;;;;;;;18.35;13.98;;;3.00;99.90;;;;;;5015451;28;20208;-85
2020/12/04 03:11:29;;;;;;;17.85;13.10;;;3.00;99.90;;;;;;5015203;28;20240;-85
2020/12/04 03:13:55;;;;;;;16.92;12.95;;;3.00;99.90;;;;;;5016567;28;20231;-85
2020/12/04 03:16:21;;;;;;;17.08;13.52;;;3.10;99.90;;;;;;5014709;28;20266;-85
2020/12/04 03:18:47;;;;;;;17.90;13.00;;;3.10;99.90;;;;;;5015375;28;20218;-85
2020/12/04 03:21:14;;;;;;;19.63;14.27;;;3.10;99.90;;;;;;5015278;28;20325;-85
2020/12/04 03:23:40;;;;;;;24.27;14.32;;;3.10;99.90;;;;;;5015116;28;20220;-85
2020/12/04 03:26:06;;;;;;;15.18;12.35;;;3.10;99.90;;;;;;5015207;28;20216;-85
2020/12/04 03:28:33;;;;;;;18.23;14.30;;;3.20;99.90;;;;;;5015208;28;20576;-85
2020/12/04 03:31:00;;;;;;;16.80;12.88;;;3.20;99.90;;;;;;5014787;28;20216;-84
2020/12/04 03:33:26;;;;;;;16.17;12.98;;;3.20;99.90;;;;;;5015281;28;20614;-85
2020/12/04 03:35:52;;;;;;;21.23;14.23;;;3.20;99.90;;;;;;5014371;28;20235;-85
2020/12/04 03:38:19;;;;;;;16.88;13.23;;;3.10;99.90;;;;;;5015219;28;20309;-84
2020/12/04 03:40:45;;;;;;;17.90;13.57;;;3.00;99.90;;;;;;5015093;28;20218;-85
2020/12/04 03:43:12;;;;;;;20.27;13.07;;;3.00;99.90;;;;;;5015014;28;20207;-86
2020/12/04 03:45:40;;;;;;;17.77;14.38;;;3.00;99.90;;;;;;5014862;28;20703;-86
2020/12/04 03:48:08;;;;;;;18.33;14.50;;;3.00;99.90;;;;;;5014625;28;20681;-86
2020/12/04 03:50:34;;;;;;;18.92;12.32;;;2.90;99.90;;;;;;5014781;28;20208;-86
2020/12/04 03:53:01;;;;;;;20.52;15.23;;;2.60;99.90;;;;;;5014675;28;20223;-86
2020/12/04 03:55:27;;;;;;;20.23;13.10;;;2.70;99.90;;;;;;5014413;28;20614;-86
2020/12/04 03:57:55;;;;;;;17.02;15.27;;;2.80;99.90;;;;;;5014888;28;20207;-86
2020/12/04 04:00:24;;;;;;;13.43;10.88;;;2.80;99.90;;;;;;5015408;28;20244;-86
2020/12/04 04:02:51;;;;;;;18.40;15.00;;;2.90;99.90;;;;;;5014621;28;20591;-86
2020/12/04 04:05:18;;;;;;;14.40;11.95;;;3.00;99.90;;;;;;5014641;28;20265;-86
2020/12/04 04:07:44;;;;;;;16.98;12.98;;;3.40;99.90;;;;;;5014476;28;20212;-86
2020/12/04 04:10:11;;;;;;;12.60;11.27;;;3.10;99.90;;;;;;5014598;28;20262;-86
2020/12/04 04:12:37;;;;;;;15.68;11.73;;;3.20;99.90;;;;;;5014089;28;20219;-86
2020/12/04 04:15:04;;;;;;;12.82;11.15;;;3.40;99.90;;;;;;5014270;28;20695;-86
2020/12/04 04:17:30;;;;;;;16.33;12.25;;;3.90;99.90;;;;;;5014154;28;20217;-86
2020/12/04 04:19:57;;;;;;;19.15;11.48;;;3.30;99.90;;;;;;5014056;28;20204;-86
2020/12/04 04:22:23;;;;;;;14.43;11.40;;;3.60;99.90;;;;;;5013857;28;20314;-86
2020/12/04 04:24:50;;;;;;;13.57;12.18;;;3.40;99.90;;;;;;5014244;28;20296;-86
2020/12/04 04:27:16;;;;;;;15.93;11.55;;;3.40;99.90;;;;;;5014203;28;20216;-86
2020/12/04 04:29:42;;;;;;;16.42;11.52;;;3.50;99.90;;;;;;5017840;28;20204;-86
2020/12/04 04:32:08;;;;;;;16.02;11.98;;;3.60;99.90;;;;;;5018225;28;20236;-86
2020/12/04 04:34:35;;;;;;;15.45;12.18;;;3.60;99.90;;;;;;5017506;28;20208;-86
2020/12/04 04:37:02;;;;;;;18.70;13.60;;;3.60;99.90;;;;;;5019600;28;20231;-86
2020/12/04 04:39:28;;;;;;;17.42;12.98;;;3.60;99.90;;;;;;5020842;28;20212;-86
2020/12/04 04:41:56;;;;;;;12.15;9.85;;;3.60;99.90;;;;;;5020404;28;20245;-86
2020/12/04 04:44:22;;;;;;;16.90;11.15;;;3.60;99.90;;;;;;5020027;28;20223;-85
2020/12/04 04:46:58;;;;;;;12.18;10.40;;;3.60;99.90;;;;;;5017040;28;20244;-85
2020/12/04 04:49:28;;;;;;;17.02;12.57;;;3.50;99.90;;;;;;5014015;28;20211;-85
2020/12/04 04:51:55;;;;;;;13.98;11.60;;;3.50;99.90;;;;;;5013857;28;20232;-86
2020/12/04 04:54:24;;;;;;;16.25;12.10;;;3.50;99.90;;;;;;5013774;28;20290;-86
2020/12/04 04:56:51;;;;;;;15.70;11.45;;;3.50;99.90;;;;;;5013893;28;20250;-85
2020/12/04 04:59:18;;;;;;;11.20;10.05;;;3.60;99.90;;;;;;5013582;28;20218;-85
2020/12/04 05:01:46;;;;;;;15.60;10.95;;;3.60;99.90;;;;;;5013084;28;20232;-85
2020/12/04 05:04:14;;;;;;;12.63;11.10;;;3.70;99.90;;;;;;5014261;28;20213;-86
2020/12/04 05:06:40;;;;;;;16.33;11.25;;;3.70;99.90;;;;;;5015662;28;20200;-86
2020/12/04 05:09:08;;;;;;;15.40;11.40;;;3.70;99.90;;;;;;5015069;28;20211;-85
2020/12/04 05:11:36;;;;;;;11.27;9.70;;;3.80;99.90;;;;;;5014773;28;20232;-85
2020/12/04 05:14:13;;;;;;;13.68;10.55;;;3.80;99.90;;;;;;5014589;28;20290;-86
2020/12/04 05:16:40;;;;;;;11.13;8.93;;;3.80;99.90;;;;;;5013633;28;20237;-85
2020/12/04 05:19:07;;;;;;;14.15;9.65;;;3.80;99.90;;;;;;5013924;28;20715;-85
2020/12/04 05:21:33;;;;;;;12.07;8.68;;;3.90;99.90;;;;;;5013339;28;20239;-85
2020/12/04 05:24:00;;;;;;;15.00;10.18;;;3.90;99.90;;;;;;5013658;28;20208;-85
2020/12/04 05:26:31;;;;;;;10.50;9.45;;;3.90;99.90;;;;;;5013509;28;20724;-85
2020/12/04 05:28:58;;;;;;;14.25;10.23;;;4.00;99.90;;;;;;5013167;28;20583;-85
2020/12/04 05:31:29;;;;;;;12.68;10.02;;;4.00;99.90;;;;;;5012698;28;20247;-85
2020/12/04 05:33:55;;;;;;;16.23;11.20;;;4.00;99.90;;;;;;5014079;28;20539;-85
2020/12/04 05:36:29;;;;;;;12.80;11.50;;;4.10;99.90;;;;;;5013213;28;20230;-85
2020/12/04 05:38:57;;;;;;;9.93;8.38;;;4.10;99.90;;;;;;5013380;28;20211;-85
2020/12/04 05:41:23;;;;;;;10.73;9.23;;;4.10;99.90;;;;;;5012714;28;20238;-84
2020/12/04 05:43:52;;;;;;;11.95;9.93;;;4.10;99.90;;;;;;5013529;28;20682;-85
2020/12/04 05:46:20;;;;;;;11.00;8.80;;;4.10;99.90;;;;;;5013058;28;20210;-85
2020/12/04 05:48:57;;;;;;;12.60;8.45;;;4.10;99.90;;;;;;5013237;28;20224;-85
2020/12/04 05:51:25;;;;;;;12.45;9.20;;;4.00;99.90;;;;;;5012538;28;20235;-85
2020/12/04 05:53:53;;;;;;;13.23;9.88;;;4.00;99.90;;;;;;5012943;28;20209;-85
2020/12/04 05:56:19;;;;;;;11.75;10.18;;;4.00;99.90;;;;;;5012796;28;20232;-85
2020/12/04 05:58:47;;;;;;;11.38;10.15;;;4.00;99.90;;;;;;5012788;28;20213;-85
2020/12/04 06:01:15;;;;;;;12.60;10.27;;;4.00;99.90;;;;;;5013023;28;20231;-84
2020/12/04 06:03:43;;;;;;;11.48;9.70;;;4.00;99.90;;;;;;5012567;28;20211;-84
2020/12/04 06:06:12;;;;;;;11.52;10.23;;;3.90;99.90;;;;;;5012907;28;20208;-85
2020/12/04 06:08:40;;;;;;;13.30;11.90;;;3.90;99.90;;;;;;5012828;28;20214;-84
2020/12/04 06:11:07;;;;;;;16.00;11.48;;;3.90;99.90;;;;;;5012858;28;20228;-84
2020/12/04 06:13:35;;;;;;;16.58;12.00;;;3.80;99.90;;;;;;5012464;28;20218;-84
2020/12/04 06:16:12;;;;;;;12.25;11.02;;;3.80;99.90;;;;;;5012439;28;20231;-85
2020/12/04 06:18:39;;;;;;;13.85;9.63;;;3.70;99.90;;;;;;5013851;28;20263;-84
2020/12/04 06:21:06;;;;;;;15.93;12.40;;;3.70;99.90;;;;;;5012840;28;20230;-85
2020/12/04 06:23:33;;;;;;;14.73;11.88;;;3.60;99.90;;;;;;5012627;28;20208;-84
2020/12/04 06:26:05;;;;;;;14.68;13.02;;;3.60;99.90;;;;;;5012695;28;20203;-84
2020/12/04 06:28:33;;;;;;;14.85;10.88;;;3.60;99.90;;;;;;5013424;28;20584;-84
2020/12/04 06:31:02;;;;;;;17.50;13.40;;;3.50;99.90;;;;;;5012329;28;20207;-84
2020/12/04 06:33:34;;;;;;;16.25;13.13;;;3.50;99.90;;;;;;5012642;28;20208;-85
2020/12/04 06:36:01;;;;;;;18.05;12.80;;;3.50;99.90;;;;;;5012738;28;20230;-84
2020/12/04 06:38:43;;;;;;;17.65;14.32;;;3.60;99.90;;;;;;5012745;28;20743;-84
2020/12/04 06:41:43;;;;;;;17.35;12.80;;;3.60;99.90;;;;;;5012503;28;20231;-84
2020/12/04 06:44:17;;;;;;;14.75;11.25;;;3.50;99.90;;;;;;5012875;28;20213;-84
2020/12/04 06:46:46;;;;;;;15.35;12.70;;;3.50;99.90;;;;;;5012701;28;20265;-84
2020/12/04 06:49:34;;;;;;;16.67;12.90;;;3.50;99.90;;;;;;5013001;28;20611;-84
2020/12/04 06:52:07;;;;;;;16.73;11.15;;;3.50;99.90;;;;;;5012284;28;20231;-84
2020/12/04 06:54:36;;;;;;;15.57;12.70;;;3.50;99.90;;;;;;5013217;28;20210;-84
2020/12/04 06:57:03;;;;;;;17.40;11.75;;;3.40;99.90;;;;;;5012756;28;20915;-84
2020/12/04 06:59:32;;;;;;;16.88;11.00;;;3.40;99.90;;;;;;5012961;28;20230;-84
2020/12/04 07:02:03;;;;;;;16.25;11.13;;;3.30;99.90;;;;;;5012969;28;20255;-84
2020/12/04 07:04:30;;;;;;;17.83;13.13;;;3.30;99.90;;;;;;5013188;28;20572;-85
2020/12/04 07:07:04;;;;;;;18.60;11.93;;;3.30;99.90;;;;;;5013139;28;20668;-84
2020/12/04 07:09:31;;;;;;;16.55;12.60;;;3.40;99.90;;;;;;5013158;28;20212;-84
2020/12/04 07:11:59;;;;;;;16.30;11.68;;;3.40;99.90;;;;;;5016174;28;20234;-84
2020/12/04 07:14:26;;;;;;;16.02;12.32;;;3.40;99.90;;;;;;5016540;28;20204;-84
2020/12/04 07:16:54;;;;;;;17.55;12.93;;;3.50;99.90;;;;;;5016341;28;20224;-84
2020/12/04 07:19:21;;;;;;;13.93;12.52;;;3.60;99.90;;;;;;5016120;28;20221;-84
2020/12/04 07:21:47;;;;;;;18.10;12.27;;;3.60;99.90;;;;;;5016043;28;20232;-84
2020/12/04 07:24:13;;;;;;;18.20;12.43;;;3.60;99.90;;;;;;5016405;28;20211;-85
2020/12/04 07:26:43;;;;;;;20.08;12.30;;;3.70;99.90;;;;;;5016345;28;20204;-84
2020/12/04 07:29:11;;;;;;;14.40;11.45;;;3.70;99.90;;;;;;5016300;28;20625;-84
2020/12/04 08:18:35;;;;;;;15.30;12.00;;;4.30;99.90;;;;;;5010142;28;20225;-85
2020/12/04 08:21:05;;;;;;;15.27;12.20;;;3.90;99.90;;;;;;4988198;28;20211;-85
2020/12/04 08:23:31;;;;;;;15.65;13.60;;;4.40;99.90;;;;;;4990767;28;20257;-85
2020/12/04 08:26:02;;;;;;;14.00;10.70;;;4.40;99.90;;;;;;4993377;28;20200;-85
2020/12/04 08:28:28;;;;;;;16.95;12.20;;;4.50;99.90;;;;;;4993645;28;20210;-84
2020/12/04 08:30:54;;;;;;;20.50;13.02;;;4.50;99.90;;;;;;4994429;28;20689;-85
2020/12/04 08:33:21;;;;;;;15.93;12.75;;;4.50;99.90;;;;;;4993919;28;20204;-84
2020/12/04 08:35:49;;;;;;;15.77;12.57;;;4.60;99.90;;;;;;5000246;28;20236;-85
2020/12/04 08:38:18;;;;;;;13.32;10.40;;;4.60;99.90;;;;;;5005653;28;20210;-82
2020/12/04 08:40:49;;;;;;;15.65;12.20;;;4.70;99.90;;;;;;5007703;28;20210;-82
2020/12/04 08:43:17;;;;;;;17.85;13.27;;;4.80;99.90;;;;;;5006979;28;20254;-82
2020/12/04 08:45:45;;;;;;;17.52;14.57;;;4.90;99.90;;;;;;5005420;28;20567;-82
2020/12/04 08:48:14;;;;;;;12.57;11.15;;;5.00;99.90;;;;;;5007261;28;20224;-83
2020/12/04 08:50:46;;;;;;;14.43;12.23;;;5.10;99.90;;;;;;5007977;28;20221;-81
2020/12/04 08:53:14;;;;;;;16.00;11.25;;;5.20;99.90;;;;;;5005845;28;20234;-83
2020/12/04 08:56:06;;;;;;;15.98;12.02;;;5.30;99.90;;;;;;5003227;28;20235;-85
2020/12/04 08:58:59;;;;;;;16.55;10.98;;;5.30;99.90;;;;;;4997622;28;20208;-85
2020/12/04 09:44:53;;;;;;;;;;;;;;;;;;;;;
2020/12/04 10:00:35;;;;;;;19.15;11.07;;;6.00;99.50;;;;;;4867927;29;20218;-84
2020/12/04 10:03:02;;;;;;;11.40;10.20;;;6.00;99.50;;;;;;4911397;29;20238;-85
2020/12/04 10:05:28;;;;;;;15.07;12.68;;;6.10;99.60;;;;;;4955701;28;20208;-84
2020/12/04 10:07:54;;;;;;;13.25;9.85;;;6.10;99.40;;;;;;4981445;28;20209;-84
2020/12/04 10:10:20;;;;;;;12.95;10.32;;;6.10;98.40;;;;;;4986377;28;20371;-83
2020/12/04 10:12:47;;;;;;;13.52;11.18;;;6.20;98.50;;;;;;4996895;28;20228;-83
2020/12/04 10:15:13;;;;;;;13.57;10.73;;;6.20;98.60;;;;;;5002135;28;20219;-85
2020/12/04 10:17:39;;;;;;;16.17;13.65;;;6.20;98.60;;;;;;5002200;28;20231;-84
2020/12/04 10:20:09;;;;;;;10.85;9.77;;;6.20;98.50;;;;;;4999077;28;20212;-85
2020/12/04 10:22:35;;;;;;;12.88;11.23;;;6.20;98.30;;;;;;5005162;28;20227;-83
2020/12/04 10:25:01;;;;;;;13.23;11.70;;;6.10;98.30;;;;;;5004050;28;20216;-84
2020/12/04 10:27:41;;;;;;;;;;;;;;;;;;;;;
2020/12/04 10:34:06;;;;;;;;;;;;;;;;;;;;;
2020/12/04 10:36:42;;;;;;;14.40;12.45;;;6.40;98.70;;;;;;4789783;30;20580;-82
2020/12/04 10:39:10;;;;;;;16.27;12.65;;;6.10;98.90;;;;;;5003656;28;20203;-82
2020/12/04 10:41:38;;;;;;;16.65;11.68;;;6.20;98.70;;;;;;5003688;28;20482;-83
2020/12/04 10:44:14;;;;;;;15.63;11.30;;;6.20;98.30;;;;;;5004100;28;20291;-84
2020/12/04 10:46:41;;;;;;;13.63;11.27;;;6.20;98.60;;;;;;5006781;28;20204;-82
2020/12/04 10:49:08;;;;;;;14.05;11.57;;;6.20;98.20;;;;;;5005693;28;20215;-83
2020/12/04 10:51:36;;;;;;;14.65;11.05;;;6.20;98.50;;;;;;5006837;28;20232;-82
2020/12/04 10:54:02;;;;;;;17.35;11.43;;;6.00;98.40;;;;;;5006915;28;20208;-83
2020/12/04 10:56:30;;;;;;;14.65;11.40;;;5.70;98.90;;;;;;5001807;28;20231;-84
2020/12/04 10:58:58;;;;;;;15.25;11.00;;;5.20;99.60;;;;;;4999667;28;20208;-84
2020/12/04 11:01:32;;;;;;;13.45;10.88;;;5.20;99.90;;;;;;4999882;28;20333;-83
2020/12/04 17:59:53;;;;;;;15.02;10.07;;;5.10;99.90;;;;;;4835287;29;20224;-81
2020/12/04 18:02:32;;;;;;;12.75;11.45;;;;;;;;;;4937360;29;20362;-82
2020/12/04 18:05:43;;;;;;;14.82;12.20;;;5.10;99.90;;;;;;4937125;29;20221;-82
2020/12/04 18:08:27;;;;;;;17.20;12.02;;;;;;;;;;4827618;29;20221;-82
2020/12/04 18:11:22;;;;;;;;;;;;;;;;;;;;;
2020/12/04 18:14:21;;;;;;;24.60;21.33;;;4.80;99.90;;;;;;4975976;28;20223;-83
2020/12/04 18:17:03;;;;;;;21.95;19.52;;;;;;;;;;4977494;28;20319;-83
2020/12/04 18:23:21;;;;;;;19.55;16.67;;;4.90;99.90;;;;;;4936524;28;20654;-83
2020/12/04 18:25:53;;;;;;;22.35;17.38;;;;;;;;;;4977123;28;20211;-83
2020/12/04 18:28:24;;;;;;;31.95;21.40;;;;;;;;;;4978062;28;20196;-84
2020/12/04 18:30:55;;;;;;;28.02;21.88;;;;;;;;;;4977370;28;20253;-84
2020/12/04 18:33:24;;;;;;;24.00;21.05;;;;;;;;;;4977660;28;20248;-83
2020/12/04 18:35:50;;;;;;;19.80;16.67;;;;;;;;;;4977130;28;20564;-83
2020/12/04 18:38:18;;;;;;;20.38;15.60;;;5.00;99.90;;;;;;4977440;28;20300;-83
2020/12/04 18:40:45;;;;;;;19.90;16.80;;;5.00;99.90;;;;;;4977812;28;20242;-83
2020/12/04 18:43:17;;;;;;;20.50;15.82;;;5.00;99.90;;;;;;4977870;28;20224;-83
2020/12/04 18:45:45;;;;;;;20.20;17.45;;;5.10;99.90;;;;;;4977268;28;20213;-83
2020/12/04 18:48:26;;;;;;;16.23;14.32;;;;;;;;;;4976568;28;20258;-84
2020/12/04 18:51:06;;;;;;;;;;;;;;;;;;;;;
2020/12/04 18:53:55;;;;;;;22.60;16.02;;;;;;;;;;4975015;28;20616;-83
2020/12/04 18:56:22;;;;;;;19.02;14.20;;;4.90;99.90;;;;;;4967792;28;20212;-84
2020/12/04 18:58:51;;;;;;;28.20;18.60;;;4.80;99.90;;;;;;4977657;28;20251;-84
2020/12/04 19:01:33;;;;;;;46.45;27.70;;;;;;;;;;4977740;28;20301;-84
2020/12/04 19:04:10;;;;;;;;;;;;;;;;;;;;;
2020/12/04 19:06:55;;;;;;;35.25;23.08;;;;;;;;;;4976425;28;20298;-85
2020/12/04 19:12:20;;;;;;;26.10;19.15;;;4.50;99.90;;;;;;4980330;28;20801;-84
2020/12/04 19:14:47;;;;;;;25.25;17.67;;;4.40;99.90;;;;;;4980267;28;20707;-84
2020/12/04 19:17:14;;;;;;;21.83;17.33;;;4.40;99.90;;;;;;4980727;28;20596;-84
2020/12/04 19:19:56;;;;;;;18.40;16.48;;;4.40;99.90;;;;;;4980802;28;20314;-84
2020/12/04 19:22:30;;;;;;;23.33;17.25;;;4.40;99.90;;;;;;4981935;28;20228;-84
2020/12/04 19:25:29;;;;;;;;;;;;;;;;;;;;;
2020/12/04 19:27:57;;;;;;;15.93;14.38;;;4.40;99.90;;;;;;4930795;28;20265;-84
2020/12/04 19:30:24;;;;;;;23.23;17.13;;;4.40;99.90;;;;;;4981266;28;20294;-84
2020/12/04 19:33:00;;;;;;;28.95;19.33;;;4.40;99.90;;;;;;4980818;28;20234;-84
2020/12/04 19:39:22;;;;;;;23.08;17.90;;;4.50;99.90;;;;;;4892211;29;20212;-83
2020/12/04 19:42:22;;;;;;;44.58;29.17;;;4.40;99.90;;;;;;4827538;29;20242;-82
2020/12/04 19:44:49;;;;;;;23.58;18.67;;;4.20;99.90;;;;;;4904119;29;20956;-84
2020/12/04 19:47:17;;;;;;;23.85;17.95;;;4.00;99.90;;;;;;4971718;28;20215;-84
2020/12/04 19:49:51;;;;;;;23.88;16.88;;;4.10;99.90;;;;;;4985543;28;20233;-84
2020/12/04 19:52:20;;;;;;;20.77;16.38;;;4.10;99.90;;;;;;4985823;28;20234;-84
2020/12/04 19:54:56;;;;;;;18.55;15.82;;;4.10;99.90;;;;;;4985251;28;20680;-84
2020/12/04 19:57:54;;;;;;;22.38;17.88;;;4.10;99.90;;;;;;4984296;28;20219;-84
2020/12/04 20:00:26;;;;;;;17.42;14.23;;;4.00;99.90;;;;;;4904588;29;20306;-82
2020/12/04 20:03:36;;;;;;;;;;;;;;;;;;;;;
2020/12/04 20:06:30;;;;;;;17.85;15.95;;;3.90;99.90;;;;;;4972992;28;20277;-82
2020/12/04 20:09:03;;;;;;;19.58;15.75;;;3.90;99.90;;;;;;4985267;28;20675;-83
2020/12/04 20:15:26;;;;;;;19.50;15.07;;;3.80;99.90;;;;;;4983719;28;20344;-83
2020/12/04 20:17:53;;;;;;;19.48;16.67;;;3.80;99.90;;;;;;4975800;28;20293;-83
2020/12/04 20:20:56;;;;;;;17.52;15.80;;;3.70;99.90;;;;;;4984391;28;20576;-82
2020/12/04 20:23:26;;;;;;;14.77;13.27;;;3.60;99.90;;;;;;4970541;28;20247;-82
2020/12/04 20:29:40;;;;;;;17.15;14.18;;;3.50;99.90;;;;;;4960502;28;20217;-83
2020/12/04 20:32:10;;;;;;;17.70;15.80;;;3.50;99.90;;;;;;4984769;28;20352;-84
2020/12/04 20:51:12;;;;;;;;;;;;;;;;;;;;;
2020/12/04 20:54:36;;;;;;;19.58;17.05;;;3.20;99.90;;;;;;4782882;29;20322;-82
2020/12/04 20:57:55;;;;;;;23.65;19.02;;;3.20;99.90;;;;;;4833763;29;20237;-83
2020/12/04 21:00:57;;;;;;;19.80;16.83;;;3.20;99.90;;;;;;4890246;29;20313;-83
2020/12/04 21:03:31;;;;;;;22.70;19.00;;;3.30;99.90;;;;;;4931758;29;20277;-82
2020/12/04 22:32:46;;;;;;;19.38;17.40;;;3.20;99.90;;;;;;4818953;29;20246;-83
2020/12/04 23:01:52;;;;;;;28.15;21.08;;;;;;;;;;4766250;30;20326;-83
2020/12/04 23:04:22;;;;;;;25.35;20.33;;;2.80;99.90;;;;;;4801861;29;20215;-83
2020/12/04 23:06:53;;;;;;;32.85;21.10;;;2.70;99.90;;;;;;4918699;29;20243;-83
2020/12/04 23:09:23;;;;;;;25.58;19.70;;;2.80;99.90;;;;;;4946099;28;20351;-83
2020/12/04 23:11:51;;;;;;;28.20;19.90;;;3.00;99.90;;;;;;4980800;28;20236;-83
2020/12/04 23:14:17;;;;;;;28.05;19.98;;;3.10;99.90;;;;;;4981085;28;20209;-83
2020/12/04 23:16:44;;;;;;;29.02;19.98;;;3.30;99.90;;;;;;4980618;28;20213;-83
2020/12/04 23:19:17;;;;;;;32.72;21.42;;;5.40;99.90;;;;;;4980357;28;20230;-82
2020/12/04 23:21:47;;;;;;;21.85;16.92;;;3.70;99.90;;;;;;4980892;28;20260;-82
2020/12/04 23:24:15;;;;;;;25.05;19.50;;;3.50;99.90;;;;;;4981085;28;20225;-82
2020/12/04 23:26:43;;;;;;;31.52;21.05;;;3.60;99.90;;;;;;4980675;28;20224;-82
2020/12/04 23:29:15;;;;;;;26.42;22.42;;;3.70;99.90;;;;;;4980374;28;20329;-82
2020/12/04 23:31:41;;;;;;;26.95;18.42;;;3.80;99.90;;;;;;4980043;28;20742;-82
2020/12/04 23:34:11;;;;;;;23.60;18.63;;;3.80;99.90;;;;;;4980704;28;20795;-82
2020/12/04 23:36:37;;;;;;;26.42;19.95;;;3.60;99.90;;;;;;4980493;28;20213;-83
2020/12/04 23:48:41;;;;;;;22.42;17.85;;;;;;;;;;4842866;29;20215;-81
2020/12/04 23:51:25;;;;;;;22.33;18.30;;;4.10;99.90;;;;;;4845657;29;20306;-82
2020/12/04 23:53:57;;;;;;;25.58;18.80;;;4.10;99.90;;;;;;4853096;29;20224;-82
2020/12/04 23:56:27;;;;;;;26.75;18.63;;;4.20;99.90;;;;;;4916555;28;20589;-82
2020/12/04 23:59:07;;;;;;;20.42;17.70;;;;;;;;;;4958040;28;20229;-84
